createdAt,value
2023-03-27T00:00:16.840Z,13.63
2023-03-27T00:02:46.972Z,13.85
2023-03-27T00:05:15.057Z,13.25
2023-03-27T00:07:42.973Z,12.05
2023-03-27T00:10:11.059Z,12.82
2023-03-27T00:12:39.882Z,10.95
2023-03-27T00:15:08.273Z,11.48
2023-03-27T00:17:37.044Z,12.05
2023-03-27T00:20:06.111Z,11.38
2023-03-27T00:22:33.825Z,11.75
2023-03-27T00:25:01.691Z,12.45
2023-03-27T00:27:30.164Z,10.45
2023-03-27T00:29:57.841Z,11.65
2023-03-27T00:32:25.866Z,12.20
2023-03-27T00:34:53.657Z,12.25
2023-03-27T00:37:21.811Z,12.30
2023-03-27T00:39:50.536Z,11.13
2023-03-27T00:42:23.041Z,11.80
2023-03-27T00:44:51.839Z,12.40
2023-03-27T00:47:31.053Z,12.88
2023-03-27T00:50:01.306Z,12.57
2023-03-27T00:52:31.512Z,13.20
2023-03-27T00:55:01.746Z,13.38
2023-03-27T00:57:31.456Z,14.43
2023-03-27T01:00:01.139Z,15.55
2023-03-27T01:02:29.142Z,13.13
2023-03-27T01:04:57.088Z,14.35
2023-03-27T01:07:25.454Z,13.77
2023-03-27T01:09:53.807Z,13.20
2023-03-27T01:12:30.842Z,13.70
2023-03-27T01:15:17.532Z,12.77
2023-03-27T01:18:21.004Z,13.70
2023-03-27T01:21:26.214Z,13.15
2023-03-27T01:24:24.689Z,13.07
2023-03-27T01:27:06.383Z,13.40
2023-03-27T01:29:47.047Z,14.20
2023-03-27T01:32:41.818Z,13.55
2023-03-27T01:35:37.305Z,14.57
2023-03-27T01:38:29.573Z,13.40
2023-03-27T01:41:25.603Z,13.93
2023-03-27T01:43:56.181Z,13.75
2023-03-27T01:46:53.240Z,14.07
2023-03-27T01:50:00.789Z,14.75
2023-03-27T01:52:32.038Z,13.75
2023-03-27T01:55:05.219Z,13.82
2023-03-27T01:57:48.859Z,13.93
2023-03-27T02:00:22.097Z,15.45
2023-03-27T02:03:14.593Z,14.10
2023-03-27T02:05:51.659Z,15.00
2023-03-27T02:08:27.886Z,15.25
2023-03-27T02:11:04.669Z,15.40
2023-03-27T02:13:41.101Z,13.65
2023-03-27T02:16:12.483Z,14.00
2023-03-27T02:18:47.685Z,14.82
2023-03-27T02:21:16.490Z,14.57
2023-03-27T02:23:44.966Z,15.15
2023-03-27T02:26:14.061Z,12.80
2023-03-27T02:28:54.408Z,14.85
2023-03-27T02:31:41.270Z,14.93
2023-03-27T02:34:26.331Z,14.20
2023-03-27T02:37:19.891Z,16.10
2023-03-27T02:40:27.718Z,16.63
2023-03-27T02:43:19.928Z,17.02
2023-03-27T02:46:09.179Z,18.70
2023-03-27T02:48:40.909Z,20.52
2023-03-27T02:51:16.584Z,19.45
2023-03-27T02:54:12.774Z,17.92
2023-03-27T02:56:46.459Z,20.73
2023-03-27T02:59:36.838Z,20.60
2023-03-27T03:04:57.256Z,21.17
2023-03-27T03:07:38.308Z,19.55
2023-03-27T03:10:09.716Z,24.75
2023-03-27T03:12:38.025Z,20.45
2023-03-27T03:15:08.119Z,22.98
2023-03-27T03:17:37.501Z,22.33
2023-03-27T03:20:07.467Z,21.27
2023-03-27T03:22:36.423Z,21.77
2023-03-27T03:25:04.866Z,19.00
2023-03-27T03:27:34.197Z,21.35
2023-03-27T03:30:16.577Z,18.30
2023-03-27T03:33:00.234Z,17.48
2023-03-27T03:35:28.374Z,17.60
2023-03-27T03:37:59.491Z,18.90
2023-03-27T03:40:28.934Z,17.80
2023-03-27T03:42:59.049Z,17.90
2023-03-27T03:45:29.725Z,17.35
2023-03-27T03:47:57.893Z,18.35
2023-03-27T03:50:25.873Z,18.10
2023-03-27T03:52:53.747Z,18.85
2023-03-27T03:55:21.405Z,20.17
2023-03-27T03:57:50.267Z,20.85
2023-03-27T04:00:26.916Z,19.00
2023-03-27T04:02:57.257Z,19.67
2023-03-27T04:05:26.149Z,21.55
2023-03-27T04:07:59.496Z,19.25
2023-03-27T04:10:27.904Z,19.60
2023-03-27T04:12:58.607Z,18.35
2023-03-27T04:15:33.291Z,17.00
2023-03-27T04:18:20.294Z,16.17
2023-03-27T04:20:54.507Z,15.80
2023-03-27T04:23:30.510Z,15.30
2023-03-27T04:26:00.442Z,13.52
2023-03-27T04:28:38.495Z,15.05
2023-03-27T04:31:26.368Z,13.38
2023-03-27T04:34:14.438Z,13.27
2023-03-27T04:37:03.674Z,14.35
2023-03-27T04:39:37.310Z,16.45
2023-03-27T04:42:05.743Z,15.15
2023-03-27T04:44:35.105Z,15.50
2023-03-27T04:47:03.861Z,14.77
2023-03-27T04:49:38.708Z,13.77
2023-03-27T04:52:18.102Z,13.50
2023-03-27T04:54:46.817Z,15.48
2023-03-27T04:57:16.144Z,14.00
2023-03-27T04:59:44.195Z,16.73
2023-03-27T05:02:33.799Z,15.85
2023-03-27T05:05:09.176Z,16.08
2023-03-27T05:07:38.078Z,17.42
2023-03-27T05:10:08.728Z,15.43
2023-03-27T05:12:43.008Z,15.20
2023-03-27T05:15:15.071Z,16.55
2023-03-27T05:17:47.256Z,15.00
2023-03-27T05:20:17.081Z,15.55
2023-03-27T05:22:45.987Z,14.43
2023-03-27T05:25:23.391Z,14.98
2023-03-27T05:27:52.391Z,14.07
2023-03-27T05:30:22.704Z,14.90
2023-03-27T05:32:59.553Z,14.88
2023-03-27T05:35:30.287Z,13.48
2023-03-27T05:37:59.604Z,16.85
2023-03-27T05:40:34.378Z,16.73
2023-03-27T05:43:03.474Z,15.70
2023-03-27T05:45:33.399Z,15.63
2023-03-27T05:48:02.935Z,15.88
2023-03-27T05:50:35.482Z,16.88
2023-03-27T05:53:10.301Z,17.33
2023-03-27T05:55:49.797Z,16.25
2023-03-27T05:58:41.745Z,15.68
2023-03-27T06:01:11.257Z,15.75
2023-03-27T06:03:39.485Z,16.58
2023-03-27T06:06:15.494Z,15.95
2023-03-27T06:08:46.264Z,17.60
2023-03-27T06:11:17.738Z,17.13
2023-03-27T06:13:46.729Z,17.95
2023-03-27T06:16:26.128Z,20.83
2023-03-27T06:19:26.238Z,21.00
2023-03-27T06:21:54.065Z,23.10
2023-03-27T06:24:22.531Z,22.92
2023-03-27T06:26:51.116Z,24.20
2023-03-27T06:29:21.342Z,25.05
2023-03-27T06:31:51.791Z,24.63
2023-03-27T06:34:39.868Z,24.45
2023-03-27T06:37:37.092Z,23.63
2023-03-27T06:40:09.812Z,26.50
2023-03-27T06:42:41.172Z,26.42
2023-03-27T06:45:38.383Z,25.73
2023-03-27T06:48:37.837Z,25.75
2023-03-27T06:51:08.111Z,26.15
2023-03-27T06:53:38.057Z,25.35
2023-03-27T06:56:07.095Z,26.13
2023-03-27T06:58:54.685Z,24.33
2023-03-27T07:04:18.828Z,25.23
2023-03-27T07:06:54.504Z,24.13
2023-03-27T07:09:22.373Z,23.00
2023-03-27T07:12:00.430Z,21.52
2023-03-27T07:14:31.127Z,19.10
2023-03-27T07:16:59.393Z,21.30
2023-03-27T07:22:12.656Z,19.50
2023-03-27T07:24:41.614Z,18.50
2023-03-27T07:27:11.248Z,18.20
2023-03-27T07:29:39.354Z,15.70
2023-03-27T07:32:09.275Z,17.35
2023-03-27T07:34:43.486Z,16.25
2023-03-27T07:37:17.049Z,14.95
2023-03-27T07:40:06.996Z,15.25
2023-03-27T07:42:35.503Z,15.60
2023-03-27T07:45:06.678Z,15.07
2023-03-27T07:47:36.882Z,13.90
2023-03-27T07:50:10.450Z,12.70
2023-03-27T07:52:43.776Z,11.75
2023-03-27T07:55:16.163Z,12.25
2023-03-27T07:58:00.793Z,11.45
2023-03-27T08:00:36.090Z,11.70
2023-03-27T08:03:16.791Z,13.20
2023-03-27T08:05:56.727Z,12.00
2023-03-27T08:08:26.653Z,10.23
2023-03-27T08:10:59.352Z,10.65
2023-03-27T08:13:33.668Z,12.10
2023-03-27T08:16:05.620Z,10.43
2023-03-27T08:18:33.867Z,10.18
2023-03-27T08:21:03.928Z,10.90
2023-03-27T08:23:33.951Z,11.55
2023-03-27T08:26:20.999Z,10.27
2023-03-27T08:28:58.725Z,11.48
2023-03-27T08:31:31.477Z,13.05
2023-03-27T08:34:02.182Z,10.88
2023-03-27T08:36:42.780Z,10.18
2023-03-27T08:39:13.486Z,8.57
2023-03-27T08:41:58.235Z,8.77
2023-03-27T08:44:33.522Z,8.38
2023-03-27T08:47:36.163Z,9.13
2023-03-27T08:50:28.995Z,7.53
2023-03-27T08:53:14.799Z,7.03
2023-03-27T08:55:44.321Z,8.52
2023-03-27T08:58:33.740Z,8.82
2023-03-27T09:01:41.444Z,7.55
2023-03-27T09:04:29.270Z,9.55
2023-03-27T09:07:11.823Z,5.53
2023-03-27T09:10:15.437Z,8.63
2023-03-27T09:13:29.989Z,6.05
2023-03-27T09:16:04.349Z,4.80
2023-03-27T09:18:43.959Z,4.97
2023-03-27T09:21:19.825Z,5.85
2023-03-27T09:23:49.179Z,5.63
2023-03-27T09:26:36.876Z,5.40
2023-03-27T09:29:22.457Z,6.55
2023-03-27T09:31:59.102Z,8.10
2023-03-27T09:34:30.627Z,5.65
2023-03-27T09:36:59.343Z,7.03
2023-03-27T09:39:32.840Z,6.05
2023-03-27T09:42:20.292Z,6.95
2023-03-27T09:44:52.837Z,5.72
2023-03-27T09:49:58.065Z,7.25
2023-03-27T09:52:41.984Z,7.22
2023-03-27T09:55:31.804Z,5.75
2023-03-27T09:58:24.935Z,6.00
2023-03-27T10:01:16.215Z,5.25
2023-03-27T10:03:54.195Z,8.43
2023-03-27T10:06:44.765Z,6.93
2023-03-27T10:09:29.342Z,5.38
2023-03-27T10:12:08.155Z,6.20
2023-03-27T10:14:45.930Z,6.13
2023-03-27T10:17:38.170Z,5.43
2023-03-27T10:20:19.700Z,7.28
2023-03-27T10:23:01.625Z,5.38
2023-03-27T10:25:38.058Z,27.67
2023-03-27T10:28:36.338Z,6.97
2023-03-27T10:31:31.509Z,6.85
2023-03-27T10:34:29.451Z,8.10
2023-03-27T10:37:28.168Z,6.25
2023-03-27T10:40:36.617Z,7.30
2023-03-27T10:43:14.420Z,6.97
2023-03-27T10:45:48.192Z,5.90
2023-03-27T10:48:33.049Z,6.57
2023-03-27T10:51:05.845Z,5.53
2023-03-27T10:54:09.634Z,6.80
2023-03-27T10:57:08.827Z,5.40
2023-03-27T10:59:45.855Z,7.75
2023-03-27T11:02:33.240Z,7.60
2023-03-27T11:05:43.895Z,7.95
2023-03-27T11:08:43.035Z,6.72
2023-03-27T11:11:16.986Z,5.88
2023-03-27T11:13:48.940Z,8.27
2023-03-27T11:16:22.250Z,6.07
2023-03-27T11:19:41.268Z,5.97
2023-03-27T11:22:43.410Z,8.65
2023-03-27T11:25:51.750Z,6.68
2023-03-27T11:28:39.801Z,9.15
2023-03-27T11:31:25.959Z,8.45
2023-03-27T11:34:02.114Z,8.35
2023-03-27T11:36:35.177Z,6.75
2023-03-27T11:39:44.086Z,7.97
2023-03-27T11:42:19.553Z,6.55
2023-03-27T11:44:50.824Z,7.55
2023-03-27T11:47:55.927Z,7.38
2023-03-27T11:51:14.893Z,9.80
2023-03-27T11:54:00.160Z,7.13
2023-03-27T11:56:56.576Z,7.00
2023-03-27T11:59:57.257Z,7.30
2023-03-27T12:02:49.916Z,5.78
2023-03-27T12:05:57.477Z,5.95
2023-03-27T12:08:46.019Z,7.45
2023-03-27T12:11:14.374Z,7.10
2023-03-27T12:14:18.464Z,6.75
2023-03-27T12:17:02.624Z,7.22
2023-03-27T12:20:22.199Z,6.70
2023-03-27T12:23:08.422Z,7.18
2023-03-27T12:25:56.271Z,7.55
2023-03-27T12:29:23.859Z,11.90
2023-03-27T12:32:33.811Z,10.40
2023-03-27T12:35:22.436Z,11.60
2023-03-27T12:37:59.627Z,8.35
2023-03-27T12:40:48.999Z,7.22
2023-03-27T12:43:21.588Z,7.72
2023-03-27T12:46:13.203Z,7.93
2023-03-27T12:48:58.750Z,8.27
2023-03-27T12:52:04.407Z,7.95
2023-03-27T12:55:18.525Z,7.10
2023-03-27T12:58:03.159Z,7.68
2023-03-27T13:01:00.557Z,7.45
2023-03-27T13:04:19.862Z,7.20
2023-03-27T13:07:06.945Z,7.05
2023-03-27T13:10:13.426Z,7.28
2023-03-27T13:12:57.793Z,6.65
2023-03-27T13:15:43.585Z,6.78
2023-03-27T13:18:24.129Z,7.63
2023-03-27T13:21:07.654Z,6.95
2023-03-27T13:23:54.756Z,6.75
2023-03-27T13:26:46.749Z,7.40
2023-03-27T13:29:17.798Z,5.85
2023-03-27T13:31:49.434Z,5.63
2023-03-27T13:34:41.715Z,5.60
2023-03-27T13:37:15.004Z,7.15
2023-03-27T13:39:55.710Z,5.28
2023-03-27T13:42:36.015Z,6.00
2023-03-27T13:45:26.427Z,5.03
2023-03-27T13:48:48.572Z,5.25
2023-03-27T13:51:26.668Z,4.68
2023-03-27T13:54:34.122Z,4.70
2023-03-27T13:57:16.256Z,4.90
2023-03-27T14:00:10.429Z,6.57
2023-03-27T14:03:02.194Z,4.43
2023-03-27T14:05:56.476Z,5.18
2023-03-27T14:08:35.480Z,4.57
2023-03-27T14:11:34.689Z,5.10
2023-03-27T14:14:21.890Z,5.47
2023-03-27T14:16:52.012Z,5.03
2023-03-27T14:19:45.317Z,3.15
2023-03-27T14:22:24.167Z,4.05
2023-03-27T14:25:03.091Z,4.78
2023-03-27T14:27:46.886Z,3.80
2023-03-27T14:30:27.112Z,4.20
2023-03-27T14:33:20.085Z,3.80
2023-03-27T14:35:57.605Z,4.22
2023-03-27T14:38:26.261Z,4.80
2023-03-27T14:41:06.555Z,3.97
2023-03-27T14:43:52.271Z,4.45
2023-03-27T14:46:22.926Z,3.90
2023-03-27T14:48:58.071Z,3.65
2023-03-27T14:51:37.158Z,7.60
2023-03-27T14:57:19.323Z,7.47
2023-03-27T14:59:54.448Z,5.60
2023-03-27T15:02:26.756Z,5.35
2023-03-27T15:05:24.666Z,4.72
2023-03-27T15:08:00.545Z,4.30
2023-03-27T15:10:53.101Z,4.78
2023-03-27T15:13:47.996Z,7.25
2023-03-27T15:16:25.155Z,7.78
2023-03-27T15:19:15.513Z,6.78
2023-03-27T15:21:57.829Z,5.13
2023-03-27T15:24:33.538Z,10.05
2023-03-27T15:27:02.176Z,4.63
2023-03-27T15:29:42.815Z,6.80
2023-03-27T15:32:18.922Z,5.80
2023-03-27T15:34:58.172Z,4.30
2023-03-27T15:37:28.798Z,8.38
2023-03-27T15:40:22.598Z,4.28
2023-03-27T15:43:03.298Z,7.07
2023-03-27T15:45:41.578Z,6.40
2023-03-27T15:48:22.209Z,6.57
2023-03-27T15:51:07.721Z,3.60
2023-03-27T15:53:58.840Z,4.60
2023-03-27T15:56:39.551Z,4.03
2023-03-27T15:59:09.916Z,5.32
2023-03-27T16:01:52.436Z,3.83
2023-03-27T16:04:22.494Z,4.82
2023-03-27T16:06:52.513Z,5.03
2023-03-27T16:09:26.165Z,5.10
2023-03-27T16:11:54.917Z,5.00
2023-03-27T16:14:29.840Z,2.85
2023-03-27T16:17:12.549Z,3.38
2023-03-27T16:19:48.924Z,5.10
2023-03-27T16:22:31.430Z,4.35
2023-03-27T16:25:00.673Z,3.50
2023-03-27T16:27:40.005Z,3.63
2023-03-27T16:30:10.822Z,4.82
2023-03-27T16:32:38.559Z,4.50
2023-03-27T16:35:07.445Z,4.32
2023-03-27T16:37:35.482Z,5.43
2023-03-27T16:40:03.348Z,5.95
2023-03-27T16:42:31.454Z,4.93
2023-03-27T16:44:59.286Z,5.75
2023-03-27T16:47:27.017Z,5.43
2023-03-27T16:50:10.214Z,4.82
2023-03-27T16:52:38.540Z,5.25
2023-03-27T16:55:07.725Z,4.85
2023-03-27T16:57:36.553Z,4.57
2023-03-27T17:00:05.747Z,5.40
2023-03-27T17:02:35.092Z,5.22
2023-03-27T17:05:07.949Z,5.05
2023-03-27T17:07:36.233Z,4.93
2023-03-27T17:10:04.383Z,4.30
2023-03-27T17:12:32.475Z,4.63
2023-03-27T17:15:00.652Z,5.00
2023-03-27T17:17:31.973Z,4.70
2023-03-27T17:20:00.806Z,4.53
2023-03-27T17:22:30.132Z,5.72
2023-03-27T17:25:01.294Z,6.47
2023-03-27T17:27:29.277Z,5.85
2023-03-27T17:29:57.657Z,6.72
2023-03-27T17:32:26.946Z,7.57
2023-03-27T17:34:55.079Z,7.25
2023-03-27T17:37:23.520Z,6.70
2023-03-27T17:39:51.528Z,7.07
2023-03-27T17:42:19.169Z,7.68
2023-03-27T17:44:46.862Z,8.30
2023-03-27T17:47:14.636Z,6.70
2023-03-27T17:49:43.377Z,8.43
2023-03-27T17:52:12.505Z,13.80
2023-03-27T17:54:40.701Z,7.82
2023-03-27T17:57:08.428Z,7.25
2023-03-27T17:59:36.741Z,7.22
2023-03-27T18:02:04.762Z,8.65
2023-03-27T18:04:33.287Z,9.10
2023-03-27T18:07:01.339Z,7.72
2023-03-27T18:09:32.538Z,8.80
2023-03-27T18:12:00.289Z,8.45
2023-03-27T18:14:28.025Z,8.25
2023-03-27T18:16:55.743Z,10.25
2023-03-27T18:19:25.203Z,10.77
2023-03-27T18:21:52.813Z,8.02
2023-03-27T18:24:20.512Z,8.57
2023-03-27T18:26:52.418Z,10.20
2023-03-27T18:29:21.392Z,8.93
2023-03-27T18:31:49.242Z,7.93
2023-03-27T18:34:17.142Z,7.38
2023-03-27T18:36:50.751Z,7.18
2023-03-27T18:39:18.949Z,7.60
2023-03-27T18:41:46.892Z,8.00
2023-03-27T18:44:14.708Z,8.38
2023-03-27T18:46:42.361Z,8.13
2023-03-27T18:49:21.607Z,8.38
2023-03-27T18:51:51.798Z,8.48
2023-03-27T18:54:19.527Z,7.45
2023-03-27T18:56:48.865Z,8.23
2023-03-27T18:59:16.772Z,7.70
2023-03-27T19:01:44.489Z,10.40
2023-03-27T19:04:13.559Z,8.23
2023-03-27T19:06:42.951Z,31.92
2023-03-27T19:09:10.749Z,7.32
2023-03-27T19:11:38.448Z,8.48
2023-03-27T19:14:11.256Z,9.27
2023-03-27T19:16:58.061Z,7.65
2023-03-27T19:19:46.594Z,7.97
2023-03-27T19:22:14.654Z,11.20
2023-03-27T19:24:47.040Z,7.72
2023-03-27T19:27:23.638Z,7.22
2023-03-27T19:29:55.420Z,8.07
2023-03-27T19:32:24.559Z,7.80
2023-03-27T19:34:52.512Z,7.95
2023-03-27T19:37:20.382Z,7.65
2023-03-27T19:39:48.079Z,8.30
2023-03-27T19:42:15.973Z,7.57
2023-03-27T19:44:44.072Z,7.03
2023-03-27T19:47:11.779Z,7.00
2023-03-27T19:49:40.165Z,7.75
2023-03-27T19:52:17.054Z,8.38
2023-03-27T19:54:44.701Z,9.00
2023-03-27T19:57:12.500Z,8.48
2023-03-27T19:59:40.335Z,10.65
2023-03-27T20:02:09.746Z,10.15
2023-03-27T20:04:37.490Z,8.95
2023-03-27T20:07:07.159Z,10.38
2023-03-27T20:09:34.814Z,8.93
2023-03-27T20:12:04.231Z,40.58
2023-03-27T20:14:32.534Z,12.00
2023-03-27T20:17:00.422Z,9.55
2023-03-27T20:19:30.543Z,9.73
2023-03-27T20:22:00.974Z,10.80
2023-03-27T20:24:29.403Z,8.60
2023-03-27T20:27:00.290Z,9.20
2023-03-27T20:29:28.065Z,10.15
2023-03-27T20:31:55.885Z,11.18
2023-03-27T20:34:24.154Z,9.25
2023-03-27T20:36:55.023Z,9.55
2023-03-27T20:39:52.116Z,11.98
2023-03-27T20:42:23.237Z,10.40
2023-03-27T20:44:58.568Z,10.02
2023-03-27T20:47:26.483Z,9.65
2023-03-27T20:49:59.073Z,10.55
2023-03-27T20:52:26.821Z,10.27
2023-03-27T20:54:54.613Z,10.90
2023-03-27T20:57:22.718Z,12.20
2023-03-27T20:59:50.957Z,13.18
2023-03-27T21:02:19.644Z,12.18
2023-03-27T21:04:47.920Z,13.68
2023-03-27T21:07:16.205Z,13.25
2023-03-27T21:09:46.751Z,13.98
2023-03-27T21:12:14.412Z,13.60
2023-03-27T21:14:42.113Z,14.20
2023-03-27T21:17:23.541Z,14.45
2023-03-27T21:19:54.707Z,17.08
2023-03-27T21:22:22.460Z,15.43
2023-03-27T21:24:50.506Z,14.57
2023-03-27T21:27:18.284Z,15.70
2023-03-27T21:29:45.964Z,16.30
2023-03-27T21:32:13.729Z,15.68
2023-03-27T21:34:47.398Z,15.05
2023-03-27T21:37:15.174Z,15.82
2023-03-27T21:39:42.881Z,16.35
2023-03-27T21:42:10.638Z,16.10
2023-03-27T21:44:38.305Z,16.63
2023-03-27T21:47:05.996Z,39.20
2023-03-27T21:49:33.745Z,17.15
2023-03-27T21:52:01.374Z,19.70
2023-03-27T21:54:28.987Z,17.50
2023-03-27T21:56:56.777Z,17.90
2023-03-27T21:59:25.311Z,17.10
2023-03-27T22:01:53.826Z,18.15
2023-03-27T22:04:21.962Z,16.42
2023-03-27T22:06:49.892Z,17.08
2023-03-27T22:09:18.092Z,17.02
2023-03-27T22:11:45.928Z,17.00
2023-03-27T22:14:13.708Z,16.30
2023-03-27T22:16:41.560Z,17.55
2023-03-27T22:19:09.823Z,15.98
2023-03-27T22:21:37.697Z,17.13
2023-03-27T22:24:06.215Z,16.80
2023-03-27T22:26:37.472Z,14.73
2023-03-27T22:29:09.302Z,16.38
2023-03-27T22:31:37.157Z,16.13
2023-03-27T22:34:05.512Z,16.73
2023-03-27T22:36:33.722Z,17.48
2023-03-27T22:39:01.447Z,16.95
2023-03-27T22:41:29.171Z,17.58
2023-03-27T22:43:56.828Z,17.15
2023-03-27T22:46:24.588Z,17.02
2023-03-27T22:48:56.978Z,16.65
2023-03-27T22:51:25.483Z,15.35
2023-03-27T22:53:53.262Z,15.68
2023-03-27T22:56:21.285Z,16.02
2023-03-27T22:58:49.070Z,16.33
2023-03-27T23:01:16.835Z,15.75
2023-03-27T23:03:44.617Z,15.10
2023-03-27T23:06:19.678Z,15.68
2023-03-27T23:08:50.965Z,16.17
2023-03-27T23:11:19.485Z,16.58
2023-03-27T23:13:47.323Z,15.27
2023-03-27T23:16:15.093Z,16.98
2023-03-27T23:18:42.819Z,15.00
2023-03-27T23:21:12.560Z,15.77
2023-03-27T23:23:41.120Z,14.50
2023-03-27T23:26:09.571Z,15.23
2023-03-27T23:28:40.117Z,14.60
2023-03-27T23:31:11.498Z,14.40
2023-03-27T23:33:41.192Z,14.52
2023-03-27T23:36:11.610Z,15.63
2023-03-27T23:38:39.956Z,14.13
2023-03-27T23:41:08.642Z,13.93
2023-03-27T23:43:55.101Z,18.25
2023-03-27T23:46:22.829Z,17.35
2023-03-27T23:48:50.558Z,16.60
2023-03-27T23:51:18.252Z,16.08
2023-03-27T23:53:46.060Z,15.55
2023-03-27T23:56:13.781Z,15.48
2023-03-27T23:58:41.705Z,15.35
